LTBS Airport Information

Runway Information
Runway 01 Length 9842 ft width 148 ft
Elevation 10 ft Threshold 0 ft Heading 15
Runway 19 Length 9842 ft Width 148 ft
Elevation 20 ft Threshold 0 ft Heading 195
Airport Frequencies
Type APP Name APP Frequency 119.225 MHZ
Type ATIS Name ATIS Frequency 127.35 MHZ
Type GND Name GND Frequency 121.9 MHZ
Type TWR Name TWR Frequency 118.5 MHZ
Airport Navaids
Type TACAN Name Dalaman Frequency 115300 KHZ
Type VOR-DME Name Dalaman Frequency 114700 KHZ
Type NDB Name Dalaman Frequency 346 KHZ
Airport Weather Information & NOTAM
ADDS - METARS form results

(2210 UTC 29 October 2020)
Data provider http://aviationweather.gov/metar/data/
 
METAR text: LTBS 292150Z 04006KT 010V070 9999 SCT035 BKN100 17/17 Q1016 NOSIG
Conditions at: LTBS (DALAMAN (COMMUNE, TR) observed 2150 UTC 29 October 2020
Temperature: 17.0°C (63°F)
Dewpoint: 17.0°C (63°F) [RH = 100%]
Pressure (altimeter): 30.00 inches Hg (1016.0 mb)
Winds: from the NE (40 degrees) at 7 MPH (6 knots; 3.1 m/s)
Visibility: 6 or more miles (10+ km)
Ceiling: 10000 feet AGL
Clouds: scattered clouds at 3500 feet AGL
broken clouds at 10000 feet AGL
Weather: no significant weather observed at this time

METAR text: LTBS 292120Z 02005KT 9999 SCT025 BKN090 17/17 Q1016 RESHRA NOSIG
Conditions at: LTBS (DALAMAN (COMMUNE, TR) observed 2120 UTC 29 October 2020
Temperature: 17.0°C (63°F)
Dewpoint: 17.0°C (63°F) [RH = 100%]
Pressure (altimeter): 30.00 inches Hg (1016.0 mb)
Winds: from the NNE (20 degrees) at 6 MPH (5 knots; 2.6 m/s)
Visibility: 6 or more miles (10+ km)
Ceiling: 9000 feet AGL
Clouds: scattered clouds at 2500 feet AGL
broken clouds at 9000 feet AGL
Weather: no significant weather observed at this time

Forecast for: LTBS (DALAMAN (COMMUNE, TR)
Text: TAF LTBS 291640Z 2918/3018 09009KT 9999 -SHRA SCT025 BKN080
Forecast period: 1800 UTC 29 October 2020 to 1800 UTC 30 October 2020
Forecast type: FROM: standard forecast or significant change
Winds: from the E (90 degrees) at 10 MPH (9 knots; 4.6 m/s)
Visibility: 6 or more miles (10+ km)
Ceiling: 8000 feet AGL
Clouds: scattered clouds at 2500 feet AGL
broken clouds at 8000 feet AGL
Weather: -SHRA  (light rain showers)
Text: PROB30
Forecast period: 0200 to 0600 UTC 30 October 2020
Forecast type: TEMPORARY: The following changes expected for less than half the time period
Visibility: missing
Ceiling: 2000 feet AGL
Clouds: few clouds at 1500 feet AGL
broken clouds at 2000 feet AGL
Weather: -TSRA  (light rain associated with thunderstorm(s))
Text: TEMPO 3002/3006 -TSRA FEW015CB BKN020
Forecast period: 1000 to 1400 UTC 30 October 2020
Forecast type: TEMPORARY: The following changes expected for less than half the time period
Visibility: missing
Ceiling: 2000 feet AGL
Clouds: few clouds at 1500 feet AGL
broken clouds at 2000 feet AGL
Weather: -TSRA  (light rain associated with thunderstorm(s))